sensor_id;sensor_type;location;lat;lon;timestamp;pressure;altitude;pressure_sealevel;temperature;humidity
12785;BME280;6456;42.680;23.260;2023-03-16T00:00:06;93742.34;;;3.96;100.00
12785;BME280;6456;42.680;23.260;2023-03-16T00:02:42;93725.69;;;3.90;100.00
12785;BME280;6456;42.680;23.260;2023-03-16T00:05:11;93833.72;;;4.61;100.00
12785;BME280;6456;42.680;23.260;2023-03-16T00:07:39;93768.25;;;4.17;100.00
12785;BME280;6456;42.680;23.260;2023-03-16T00:10:07;93655.59;;;3.41;100.00
12785;BME280;6456;42.680;23.260;2023-03-16T00:12:37;93750.09;;;3.89;100.00
12785;BME280;6456;42.680;23.260;2023-03-16T00:15:06;93783.41;;;4.07;100.00
12785;BME280;6456;42.680;23.260;2023-03-16T00:17:33;93813.91;;;4.19;100.00
12785;BME280;6456;42.680;23.260;2023-03-16T00:20:00;93698.03;;;3.48;100.00
12785;BME280;6456;42.680;23.260;2023-03-16T00:22:31;93834.81;;;4.32;100.00
12785;BME280;6456;42.680;23.260;2023-03-16T00:24:58;93837.81;;;4.36;100.00
12785;BME280;6456;42.680;23.260;2023-03-16T00:27:25;93721.50;;;3.55;100.00
12785;BME280;6456;42.680;23.260;2023-03-16T00:29:52;93869.88;;;4.36;100.00
12785;BME280;6456;42.680;23.260;2023-03-16T00:32:23;93736.38;;;3.67;100.00
12785;BME280;6456;42.680;23.260;2023-03-16T00:34:50;93786.59;;;3.96;100.00
12785;BME280;6456;42.680;23.260;2023-03-16T00:37:19;93856.69;;;4.38;100.00
12785;BME280;6456;42.680;23.260;2023-03-16T00:39:48;93789.34;;;3.87;100.00
12785;BME280;6456;42.680;23.260;2023-03-16T00:42:16;93857.03;;;4.28;100.00
12785;BME280;6456;42.680;23.260;2023-03-16T00:44:44;93754.28;;;3.49;100.00
12785;BME280;6456;42.680;23.260;2023-03-16T00:47:12;93798.81;;;3.67;100.00
12785;BME280;6456;42.680;23.260;2023-03-16T00:49:42;93781.72;;;3.58;100.00
12785;BME280;6456;42.680;23.260;2023-03-16T00:52:20;93766.28;;;3.50;100.00
12785;BME280;6456;42.680;23.260;2023-03-16T00:54:55;93761.00;;;3.37;100.00
12785;BME280;6456;42.680;23.260;2023-03-16T00:57:24;93738.88;;;3.20;100.00
12785;BME280;6456;42.680;23.260;2023-03-16T00:59:52;93811.72;;;3.82;100.00
12785;BME280;6456;42.680;23.260;2023-03-16T01:02:19;93709.91;;;3.23;100.00
12785;BME280;6456;42.680;23.260;2023-03-16T01:04:52;93735.38;;;3.34;100.00
12785;BME280;6456;42.680;23.260;2023-03-16T01:07:19;93805.09;;;3.79;100.00
12785;BME280;6456;42.680;23.260;2023-03-16T01:09:47;93757.72;;;3.56;100.00
12785;BME280;6456;42.680;23.260;2023-03-16T01:12:16;93809.78;;;3.91;100.00
12785;BME280;6456;42.680;23.260;2023-03-16T01:14:43;93833.06;;;4.05;100.00
12785;BME280;6456;42.680;23.260;2023-03-16T01:17:12;93855.44;;;4.27;100.00
12785;BME280;6456;42.680;23.260;2023-03-16T01:19:40;93872.09;;;4.33;100.00
12785;BME280;6456;42.680;23.260;2023-03-16T01:22:09;93878.31;;;4.38;100.00
12785;BME280;6456;42.680;23.260;2023-03-16T01:24:36;93721.03;;;3.38;100.00
12785;BME280;6456;42.680;23.260;2023-03-16T01:27:06;93859.19;;;4.18;100.00
12785;BME280;6456;42.680;23.260;2023-03-16T01:29:33;93726.13;;;3.25;100.00
12785;BME280;6456;42.680;23.260;2023-03-16T01:32:01;93839.91;;;3.78;100.00
12785;BME280;6456;42.680;23.260;2023-03-16T01:34:28;93755.47;;;3.19;100.00
12785;BME280;6456;42.680;23.260;2023-03-16T01:36:56;93839.63;;;3.67;100.00
12785;BME280;6456;42.680;23.260;2023-03-16T01:39:24;93809.78;;;3.35;100.00
12785;BME280;6456;42.680;23.260;2023-03-16T01:41:52;93739.47;;;2.94;100.00
12785;BME280;6456;42.680;23.260;2023-03-16T01:44:21;93836.53;;;3.50;100.00
12785;BME280;6456;42.680;23.260;2023-03-16T01:46:54;93902.34;;;3.78;100.00
12785;BME280;6456;42.680;23.260;2023-03-16T01:49:23;93791.94;;;3.04;100.00
12785;BME280;6456;42.680;23.260;2023-03-16T01:51:52;93738.53;;;2.81;100.00
12785;BME280;6456;42.680;23.260;2023-03-16T01:54:24;93817.34;;;3.30;100.00
12785;BME280;6456;42.680;23.260;2023-03-16T01:56:58;93842.59;;;3.36;100.00
12785;BME280;6456;42.680;23.260;2023-03-16T01:59:30;93909.53;;;3.76;100.00
12785;BME280;6456;42.680;23.260;2023-03-16T02:01:57;93823.28;;;3.24;100.00
12785;BME280;6456;42.680;23.260;2023-03-16T02:04:42;93862.53;;;3.29;100.00
12785;BME280;6456;42.680;23.260;2023-03-16T02:07:12;93792.75;;;2.84;100.00
12785;BME280;6456;42.680;23.260;2023-03-16T02:09:44;93723.78;;;2.39;100.00
12785;BME280;6456;42.680;23.260;2023-03-16T02:12:13;93849.34;;;3.09;100.00
12785;BME280;6456;42.680;23.260;2023-03-16T02:14:43;93849.72;;;3.06;100.00
12785;BME280;6456;42.680;23.260;2023-03-16T02:17:10;93783.22;;;2.70;100.00
12785;BME280;6456;42.680;23.260;2023-03-16T02:19:45;93749.03;;;2.45;100.00
12785;BME280;6456;42.680;23.260;2023-03-16T02:22:15;93818.47;;;2.79;100.00
12785;BME280;6456;42.680;23.260;2023-03-16T02:24:44;93766.75;;;2.41;100.00
12785;BME280;6456;42.680;23.260;2023-03-16T02:27:13;93867.50;;;3.03;100.00
12785;BME280;6456;42.680;23.260;2023-03-16T02:29:59;93774.22;;;2.51;100.00
12785;BME280;6456;42.680;23.260;2023-03-16T02:32:30;93759.50;;;2.37;100.00
12785;BME280;6456;42.680;23.260;2023-03-16T02:34:58;93826.75;;;2.89;100.00
12785;BME280;6456;42.680;23.260;2023-03-16T02:37:27;93860.81;;;3.15;100.00
12785;BME280;6456;42.680;23.260;2023-03-16T02:39:54;93814.44;;;2.76;100.00
12785;BME280;6456;42.680;23.260;2023-03-16T02:42:24;93791.13;;;2.62;100.00
12785;BME280;6456;42.680;23.260;2023-03-16T02:44:55;93826.59;;;2.90;100.00
12785;BME280;6456;42.680;23.260;2023-03-16T02:47:33;93850.28;;;3.02;100.00
12785;BME280;6456;42.680;23.260;2023-03-16T02:50:02;93773.13;;;2.60;100.00
12785;BME280;6456;42.680;23.260;2023-03-16T02:52:31;93931.56;;;3.53;100.00
12785;BME280;6456;42.680;23.260;2023-03-16T02:54:59;93863.53;;;3.07;100.00
12785;BME280;6456;42.680;23.260;2023-03-16T02:57:26;93848.28;;;3.04;100.00
12785;BME280;6456;42.680;23.260;2023-03-16T02:59:53;93952.88;;;3.63;100.00
12785;BME280;6456;42.680;23.260;2023-03-16T03:02:20;93920.34;;;3.31;100.00
12785;BME280;6456;42.680;23.260;2023-03-16T03:04:48;93850.97;;;2.89;100.00
12785;BME280;6456;42.680;23.260;2023-03-16T03:07:20;93917.25;;;3.21;100.00
12785;BME280;6456;42.680;23.260;2023-03-16T03:09:56;93923.09;;;3.23;100.00
12785;BME280;6456;42.680;23.260;2023-03-16T03:12:23;93936.81;;;3.17;100.00
12785;BME280;6456;42.680;23.260;2023-03-16T03:14:50;93971.41;;;3.39;100.00
12785;BME280;6456;42.680;23.260;2023-03-16T03:17:17;93961.31;;;3.29;100.00
12785;BME280;6456;42.680;23.260;2023-03-16T03:19:44;93954.91;;;3.25;100.00
12785;BME280;6456;42.680;23.260;2023-03-16T03:22:12;93886.91;;;2.71;100.00
12785;BME280;6456;42.680;23.260;2023-03-16T03:24:43;93983.75;;;3.30;100.00
12785;BME280;6456;42.680;23.260;2023-03-16T03:27:10;93872.00;;;2.44;100.00
12785;BME280;6456;42.680;23.260;2023-03-16T03:29:37;93914.69;;;2.71;100.00
12785;BME280;6456;42.680;23.260;2023-03-16T03:32:04;93846.53;;;2.33;100.00
12785;BME280;6456;42.680;23.260;2023-03-16T03:34:31;93984.66;;;3.22;100.00
12785;BME280;6456;42.680;23.260;2023-03-16T03:36:59;93849.84;;;2.27;100.00
12785;BME280;6456;42.680;23.260;2023-03-16T03:39:28;93911.31;;;2.55;100.00
12785;BME280;6456;42.680;23.260;2023-03-16T03:41:54;93961.19;;;2.80;100.00
12785;BME280;6456;42.680;23.260;2023-03-16T03:44:22;93982.31;;;2.92;100.00
12785;BME280;6456;42.680;23.260;2023-03-16T03:46:49;93890.28;;;2.21;100.00
12785;BME280;6456;42.680;23.260;2023-03-16T03:49:17;93949.00;;;2.51;100.00
12785;BME280;6456;42.680;23.260;2023-03-16T03:51:44;93980.53;;;2.78;100.00
12785;BME280;6456;42.680;23.260;2023-03-16T03:54:11;93967.66;;;2.55;100.00
12785;BME280;6456;42.680;23.260;2023-03-16T03:56:39;93895.56;;;2.13;100.00
12785;BME280;6456;42.680;23.260;2023-03-16T03:59:06;93824.44;;;1.64;100.00
12785;BME280;6456;42.680;23.260;2023-03-16T04:01:36;93833.22;;;1.63;100.00
12785;BME280;6456;42.680;23.260;2023-03-16T04:04:06;93961.81;;;2.38;100.00
12785;BME280;6456;42.680;23.260;2023-03-16T04:06:33;93868.28;;;1.88;100.00
12785;BME280;6456;42.680;23.260;2023-03-16T04:09:00;93962.47;;;2.40;100.00
12785;BME280;6456;42.680;23.260;2023-03-16T04:11:26;93964.44;;;2.53;100.00
12785;BME280;6456;42.680;23.260;2023-03-16T04:13:55;93932.63;;;2.36;100.00
12785;BME280;6456;42.680;23.260;2023-03-16T04:16:22;94014.97;;;3.01;100.00
12785;BME280;6456;42.680;23.260;2023-03-16T04:18:51;94011.06;;;3.05;100.00
12785;BME280;6456;42.680;23.260;2023-03-16T04:21:19;93982.59;;;2.82;100.00
12785;BME280;6456;42.680;23.260;2023-03-16T04:23:47;93921.53;;;2.42;100.00
12785;BME280;6456;42.680;23.260;2023-03-16T04:26:14;94053.53;;;3.12;100.00
12785;BME280;6456;42.680;23.260;2023-03-16T04:28:42;93956.97;;;2.65;100.00
12785;BME280;6456;42.680;23.260;2023-03-16T04:31:10;94034.72;;;3.10;100.00
12785;BME280;6456;42.680;23.260;2023-03-16T04:33:37;93978.94;;;2.62;100.00
12785;BME280;6456;42.680;23.260;2023-03-16T04:36:05;94013.22;;;2.87;100.00
12785;BME280;6456;42.680;23.260;2023-03-16T04:38:33;94040.31;;;3.13;100.00
12785;BME280;6456;42.680;23.260;2023-03-16T04:41:02;94013.22;;;2.87;100.00
12785;BME280;6456;42.680;23.260;2023-03-16T04:43:29;93942.84;;;2.38;100.00
12785;BME280;6456;42.680;23.260;2023-03-16T04:45:58;94087.22;;;3.20;100.00
12785;BME280;6456;42.680;23.260;2023-03-16T04:48:27;93913.66;;;2.21;100.00
12785;BME280;6456;42.680;23.260;2023-03-16T04:50:57;93978.03;;;2.55;100.00
12785;BME280;6456;42.680;23.260;2023-03-16T04:53:24;93959.47;;;2.43;100.00
12785;BME280;6456;42.680;23.260;2023-03-16T04:55:51;93897.72;;;1.95;100.00
12785;BME280;6456;42.680;23.260;2023-03-16T04:58:18;93927.59;;;2.06;100.00
12785;BME280;6456;42.680;23.260;2023-03-16T05:00:47;93910.06;;;1.93;100.00
12785;BME280;6456;42.680;23.260;2023-03-16T05:03:14;94009.19;;;2.55;100.00
12785;BME280;6456;42.680;23.260;2023-03-16T05:05:46;93941.84;;;1.95;100.00
12785;BME280;6456;42.680;23.260;2023-03-16T05:08:13;93983.47;;;2.31;100.00
12785;BME280;6456;42.680;23.260;2023-03-16T05:10:40;94007.22;;;2.57;100.00
12785;BME280;6456;42.680;23.260;2023-03-16T05:13:07;93937.00;;;2.07;100.00
12785;BME280;6456;42.680;23.260;2023-03-16T05:15:34;94035.44;;;2.75;100.00
12785;BME280;6456;42.680;23.260;2023-03-16T05:18:01;94015.97;;;2.56;100.00
12785;BME280;6456;42.680;23.260;2023-03-16T05:20:28;93922.50;;;1.98;100.00
12785;BME280;6456;42.680;23.260;2023-03-16T05:22:57;94012.84;;;2.46;100.00
12785;BME280;6456;42.680;23.260;2023-03-16T05:25:24;94026.75;;;2.53;100.00
12785;BME280;6456;42.680;23.260;2023-03-16T05:27:52;94070.19;;;2.74;100.00
12785;BME280;6456;42.680;23.260;2023-03-16T05:30:21;94087.22;;;2.91;100.00
12785;BME280;6456;42.680;23.260;2023-03-16T05:32:48;94002.28;;;2.33;100.00
12785;BME280;6456;42.680;23.260;2023-03-16T05:35:15;94027.72;;;2.37;100.00
12785;BME280;6456;42.680;23.260;2023-03-16T05:37:43;94051.00;;;2.45;100.00
12785;BME280;6456;42.680;23.260;2023-03-16T05:40:13;94058.06;;;2.51;100.00
12785;BME280;6456;42.680;23.260;2023-03-16T05:42:43;94112.66;;;2.81;100.00
12785;BME280;6456;42.680;23.260;2023-03-16T05:45:11;93960.91;;;2.02;100.00
12785;BME280;6456;42.680;23.260;2023-03-16T05:47:39;93986.41;;;2.13;100.00
12785;BME280;6456;42.680;23.260;2023-03-16T05:50:07;94037.03;;;2.46;100.00
12785;BME280;6456;42.680;23.260;2023-03-16T05:52:36;94139.28;;;2.97;100.00
12785;BME280;6456;42.680;23.260;2023-03-16T05:55:04;94072.06;;;2.50;100.00
12785;BME280;6456;42.680;23.260;2023-03-16T05:57:32;94064.00;;;2.45;100.00
12785;BME280;6456;42.680;23.260;2023-03-16T06:00:00;94091.13;;;2.57;100.00
12785;BME280;6456;42.680;23.260;2023-03-16T06:02:36;94088.09;;;2.69;100.00
12785;BME280;6456;42.680;23.260;2023-03-16T06:05:03;94147.44;;;3.09;100.00
12785;BME280;6456;42.680;23.260;2023-03-16T06:07:30;94151.94;;;3.15;100.00
12785;BME280;6456;42.680;23.260;2023-03-16T06:09:57;94151.41;;;3.19;100.00
12785;BME280;6456;42.680;23.260;2023-03-16T06:12:24;94148.59;;;3.21;100.00
12785;BME280;6456;42.680;23.260;2023-03-16T06:14:52;94160.44;;;3.23;100.00
12785;BME280;6456;42.680;23.260;2023-03-16T06:17:19;94162.06;;;3.24;100.00
12785;BME280;6456;42.680;23.260;2023-03-16T06:19:46;94159.66;;;3.23;100.00
12785;BME280;6456;42.680;23.260;2023-03-16T06:22:13;94051.81;;;2.60;100.00
12785;BME280;6456;42.680;23.260;2023-03-16T06:24:40;94169.59;;;3.34;100.00
12785;BME280;6456;42.680;23.260;2023-03-16T06:27:07;94175.06;;;3.39;100.00
12785;BME280;6456;42.680;23.260;2023-03-16T06:29:34;94142.44;;;3.22;100.00
12785;BME280;6456;42.680;23.260;2023-03-16T06:32:03;94175.41;;;3.36;100.00
12785;BME280;6456;42.680;23.260;2023-03-16T06:34:30;94182.72;;;3.41;100.00
12785;BME280;6456;42.680;23.260;2023-03-16T06:36:57;94108.81;;;2.91;100.00
12785;BME280;6456;42.680;23.260;2023-03-16T06:39:25;94101.00;;;2.91;100.00
12785;BME280;6456;42.680;23.260;2023-03-16T06:41:56;94157.22;;;3.21;100.00
12785;BME280;6456;42.680;23.260;2023-03-16T06:44:27;94204.47;;;3.54;100.00
12785;BME280;6456;42.680;23.260;2023-03-16T06:57:50;94045.59;;;2.32;100.00
12785;BME280;6456;42.680;23.260;2023-03-16T07:00:18;94222.22;;;3.36;100.00
12785;BME280;6456;42.680;23.260;2023-03-16T07:02:46;94211.75;;;3.30;100.00
12785;BME280;6456;42.680;23.260;2023-03-16T07:05:13;94152.44;;;2.96;100.00
12785;BME280;6456;42.680;23.260;2023-03-16T07:07:40;94211.81;;;3.36;100.00
12785;BME280;6456;42.680;23.260;2023-03-16T07:10:09;94165.03;;;3.07;100.00
12785;BME280;6456;42.680;23.260;2023-03-16T07:12:36;94227.00;;;3.62;100.00
12785;BME280;6456;42.680;23.260;2023-03-16T07:15:05;94113.72;;;2.72;100.00
12785;BME280;6456;42.680;23.260;2023-03-16T07:17:32;94223.31;;;3.27;100.00
12785;BME280;6456;42.680;23.260;2023-03-16T07:19:59;94097.31;;;2.56;100.00
12785;BME280;6456;42.680;23.260;2023-03-16T07:22:29;94180.25;;;3.10;100.00
12785;BME280;6456;42.680;23.260;2023-03-16T07:24:56;94251.13;;;3.56;100.00
12785;BME280;6456;42.680;23.260;2023-03-16T07:27:23;94083.16;;;2.59;100.00
12785;BME280;6456;42.680;23.260;2023-03-16T07:29:50;94257.59;;;3.74;100.00
12785;BME280;6456;42.680;23.260;2023-03-16T07:32:18;94144.31;;;2.99;100.00
12785;BME280;6456;42.680;23.260;2023-03-16T07:34:46;94185.53;;;3.46;100.00
12785;BME280;6456;42.680;23.260;2023-03-16T07:37:13;94166.03;;;3.35;100.00
12785;BME280;6456;42.680;23.260;2023-03-16T07:39:40;94291.13;;;3.99;100.00
12785;BME280;6456;42.680;23.260;2023-03-16T07:42:08;94233.28;;;3.82;100.00
12785;BME280;6456;42.680;23.260;2023-03-16T07:44:35;94254.00;;;3.90;100.00
12785;BME280;6456;42.680;23.260;2023-03-16T07:47:02;94231.03;;;3.64;100.00
12785;BME280;6456;42.680;23.260;2023-03-16T07:49:30;94267.34;;;4.02;100.00
12785;BME280;6456;42.680;23.260;2023-03-16T07:51:56;94263.59;;;3.89;100.00
12785;BME280;6456;42.680;23.260;2023-03-16T07:54:23;94116.59;;;3.06;100.00
12785;BME280;6456;42.680;23.260;2023-03-16T07:56:50;94107.38;;;3.03;100.00
12785;BME280;6456;42.680;23.260;2023-03-16T07:59:17;94103.19;;;2.88;100.00
12785;BME280;6456;42.680;23.260;2023-03-16T08:01:45;94275.34;;;4.15;100.00
12785;BME280;6456;42.680;23.260;2023-03-16T08:04:12;94280.81;;;4.20;100.00
12785;BME280;6456;42.680;23.260;2023-03-16T08:06:40;94277.69;;;4.10;100.00
12785;BME280;6456;42.680;23.260;2023-03-16T08:09:07;94263.41;;;4.20;100.00
12785;BME280;6456;42.680;23.260;2023-03-16T08:11:34;94266.91;;;4.13;100.00
12785;BME280;6456;42.680;23.260;2023-03-16T08:14:01;94282.88;;;4.24;100.00
12785;BME280;6456;42.680;23.260;2023-03-16T08:16:29;94289.75;;;4.32;100.00
12785;BME280;6456;42.680;23.260;2023-03-16T08:18:56;94229.69;;;3.98;100.00
12785;BME280;6456;42.680;23.260;2023-03-16T08:21:24;94260.25;;;4.25;100.00
12785;BME280;6456;42.680;23.260;2023-03-16T08:23:52;94286.75;;;4.28;100.00
12785;BME280;6456;42.680;23.260;2023-03-16T08:26:20;94255.59;;;4.20;100.00
12785;BME280;6456;42.680;23.260;2023-03-16T08:28:49;94295.13;;;4.45;100.00
12785;BME280;6456;42.680;23.260;2023-03-16T08:31:18;94295.41;;;4.50;100.00
12785;BME280;6456;42.680;23.260;2023-03-16T08:33:46;94281.03;;;4.39;100.00
12785;BME280;6456;42.680;23.260;2023-03-16T08:36:15;94308.56;;;4.63;100.00
12785;BME280;6456;42.680;23.260;2023-03-16T08:38:42;94306.44;;;4.52;100.00
12785;BME280;6456;42.680;23.260;2023-03-16T08:41:12;94293.78;;;4.49;100.00
12785;BME280;6456;42.680;23.260;2023-03-16T08:43:40;94221.22;;;4.10;100.00
12785;BME280;6456;42.680;23.260;2023-03-16T08:46:08;94303.63;;;4.68;100.00
12785;BME280;6456;42.680;23.260;2023-03-16T08:48:35;94307.66;;;4.71;100.00
12785;BME280;6456;42.680;23.260;2023-03-16T08:51:03;94288.34;;;4.65;100.00
12785;BME280;6456;42.680;23.260;2023-03-16T08:53:30;94318.50;;;4.74;100.00
12785;BME280;6456;42.680;23.260;2023-03-16T08:56:01;94217.91;;;4.02;100.00
12785;BME280;6456;42.680;23.260;2023-03-16T08:58:31;94314.66;;;4.70;100.00
12785;BME280;6456;42.680;23.260;2023-03-16T09:00:58;94312.06;;;4.70;100.00
12785;BME280;6456;42.680;23.260;2023-03-16T09:03:26;94315.84;;;4.68;100.00
12785;BME280;6456;42.680;23.260;2023-03-16T09:05:53;94302.28;;;4.58;100.00
12785;BME280;6456;42.680;23.260;2023-03-16T09:08:22;94310.13;;;4.79;100.00
12785;BME280;6456;42.680;23.260;2023-03-16T09:10:48;94324.34;;;4.76;100.00
12785;BME280;6456;42.680;23.260;2023-03-16T09:13:15;94325.25;;;4.83;100.00
12785;BME280;6456;42.680;23.260;2023-03-16T09:15:45;94324.09;;;4.71;100.00
12785;BME280;6456;42.680;23.260;2023-03-16T09:18:12;94330.66;;;4.67;100.00
12785;BME280;6456;42.680;23.260;2023-03-16T09:20:39;94320.44;;;4.66;100.00
12785;BME280;6456;42.680;23.260;2023-03-16T09:23:06;94321.16;;;4.60;100.00
12785;BME280;6456;42.680;23.260;2023-03-16T09:25:33;94326.81;;;4.63;100.00
12785;BME280;6456;42.680;23.260;2023-03-16T09:28:00;94306.19;;;4.47;100.00
12785;BME280;6456;42.680;23.260;2023-03-16T09:30:27;94328.44;;;4.49;100.00
12785;BME280;6456;42.680;23.260;2023-03-16T09:32:55;94326.56;;;4.58;100.00
12785;BME280;6456;42.680;23.260;2023-03-16T09:35:22;94316.63;;;4.32;100.00
12785;BME280;6456;42.680;23.260;2023-03-16T09:37:49;94287.38;;;4.16;100.00
12785;BME280;6456;42.680;23.260;2023-03-16T09:40:22;94334.94;;;4.39;100.00
12785;BME280;6456;42.680;23.260;2023-03-16T09:42:57;94340.03;;;4.47;100.00
12785;BME280;6456;42.680;23.260;2023-03-16T09:45:35;94340.03;;;4.47;100.00
12785;BME280;6456;42.680;23.260;2023-03-16T09:48:04;94346.69;;;4.49;100.00
12785;BME280;6456;42.680;23.260;2023-03-16T09:50:37;94329.97;;;4.44;100.00
12785;BME280;6456;42.680;23.260;2023-03-16T09:53:07;94287.44;;;4.22;100.00
12785;BME280;6456;42.680;23.260;2023-03-16T09:55:41;94349.91;;;4.51;100.00
12785;BME280;6456;42.680;23.260;2023-03-16T09:58:12;94350.22;;;4.27;100.00
12785;BME280;6456;42.680;23.260;2023-03-16T10:00:47;94300.78;;;3.98;100.00
12785;BME280;6456;42.680;23.260;2023-03-16T10:03:29;94300.50;;;4.08;100.00
12785;BME280;6456;42.680;23.260;2023-03-16T10:06:01;94340.41;;;4.44;100.00
12785;BME280;6456;42.680;23.260;2023-03-16T10:08:32;94335.97;;;4.59;100.00
12785;BME280;6456;42.680;23.260;2023-03-16T10:11:21;94303.13;;;4.43;100.00
12785;BME280;6456;42.680;23.260;2023-03-16T10:13:53;94343.75;;;4.74;100.00
12785;BME280;6456;42.680;23.260;2023-03-16T10:16:26;94346.56;;;4.72;100.00
12785;BME280;6456;42.680;23.260;2023-03-16T10:19:00;94347.94;;;4.68;100.00
12785;BME280;6456;42.680;23.260;2023-03-16T10:21:30;94345.94;;;4.70;100.00
12785;BME280;6456;42.680;23.260;2023-03-16T10:23:59;94235.13;;;4.03;100.00
12785;BME280;6456;42.680;23.260;2023-03-16T10:26:34;94347.72;;;4.70;100.00
12785;BME280;6456;42.680;23.260;2023-03-16T10:29:03;94350.84;;;4.80;100.00
12785;BME280;6456;42.680;23.260;2023-03-16T10:31:33;94343.22;;;4.78;100.00
12785;BME280;6456;42.680;23.260;2023-03-16T10:34:04;94246.63;;;4.08;100.00
12785;BME280;6456;42.680;23.260;2023-03-16T10:36:33;94251.56;;;4.18;100.00
12785;BME280;6456;42.680;23.260;2023-03-16T10:39:03;94344.75;;;4.73;99.81
12785;BME280;6456;42.680;23.260;2023-03-16T10:41:32;94331.13;;;4.56;98.22
12785;BME280;6456;42.680;23.260;2023-03-16T10:44:00;94254.69;;;3.99;96.15
12785;BME280;6456;42.680;23.260;2023-03-16T10:46:36;94268.25;;;4.09;97.08
12785;BME280;6456;42.680;23.260;2023-03-16T10:49:19;94265.28;;;4.12;98.13
12785;BME280;6456;42.680;23.260;2023-03-16T10:51:46;94355.34;;;4.71;96.77
12785;BME280;6456;42.680;23.260;2023-03-16T10:54:15;94347.66;;;4.63;94.50
12785;BME280;6456;42.680;23.260;2023-03-16T10:56:44;94319.09;;;4.55;96.94
12785;BME280;6456;42.680;23.260;2023-03-16T10:59:13;94352.94;;;4.70;96.78
12785;BME280;6456;42.680;23.260;2023-03-16T11:01:44;94267.78;;;4.20;96.88
12785;BME280;6456;42.680;23.260;2023-03-16T11:04:15;94276.06;;;4.23;96.98
12785;BME280;6456;42.680;23.260;2023-03-16T11:06:53;94324.22;;;4.48;95.04
12785;BME280;6456;42.680;23.260;2023-03-16T11:09:23;94328.91;;;4.38;95.29
12785;BME280;6456;42.680;23.260;2023-03-16T11:11:52;94361.50;;;4.49;95.60
12785;BME280;6456;42.680;23.260;2023-03-16T11:14:21;94250.22;;;3.93;97.17
12785;BME280;6456;42.680;23.260;2023-03-16T11:16:52;94196.84;;;3.67;97.49
12785;BME280;6456;42.680;23.260;2023-03-16T11:19:27;94346.91;;;4.69;96.69
12785;BME280;6456;42.680;23.260;2023-03-16T11:21:59;94251.56;;;4.03;96.42
12785;BME280;6456;42.680;23.260;2023-03-16T11:24:32;94213.00;;;3.77;97.86
12785;BME280;6456;42.680;23.260;2023-03-16T11:27:10;94187.34;;;3.60;96.31
12785;BME280;6456;42.680;23.260;2023-03-16T11:29:58;94333.38;;;4.59;97.44
12785;BME280;6456;42.680;23.260;2023-03-16T11:32:32;94171.75;;;3.60;96.69
12785;BME280;6456;42.680;23.260;2023-03-16T11:35:05;94368.84;;;4.75;97.45
12785;BME280;6456;42.680;23.260;2023-03-16T11:37:47;94301.56;;;4.28;96.65
12785;BME280;6456;42.680;23.260;2023-03-16T11:40:28;94195.31;;;3.58;96.86
12785;BME280;6456;42.680;23.260;2023-03-16T11:43:05;94348.91;;;4.67;97.18
12785;BME280;6456;42.680;23.260;2023-03-16T11:45:42;94181.53;;;3.43;96.42
12785;BME280;6456;42.680;23.260;2023-03-16T11:48:22;94240.34;;;3.73;96.57
12785;BME280;6456;42.680;23.260;2023-03-16T11:51:03;94356.41;;;4.56;97.24
12785;BME280;6456;42.680;23.260;2023-03-16T11:53:57;94334.41;;;4.29;97.83
12785;BME280;6456;42.680;23.260;2023-03-16T11:56:32;94359.38;;;4.38;97.87
12785;BME280;6456;42.680;23.260;2023-03-16T11:59:23;94374.47;;;4.42;98.77
12785;BME280;6456;42.680;23.260;2023-03-16T12:02:00;94288.81;;;4.04;99.90
12785;BME280;6456;42.680;23.260;2023-03-16T12:04:43;94303.00;;;4.16;100.00
12785;BME280;6456;42.680;23.260;2023-03-16T12:07:25;94302.81;;;4.03;99.07
12785;BME280;6456;42.680;23.260;2023-03-16T12:10:04;94339.78;;;4.42;99.89
12785;BME280;6456;42.680;23.260;2023-03-16T12:12:52;94310.78;;;4.30;100.00
12785;BME280;6456;42.680;23.260;2023-03-16T12:15:33;94377.50;;;4.61;99.71
12785;BME280;6456;42.680;23.260;2023-03-16T12:18:08;94296.44;;;4.05;97.49
12785;BME280;6456;42.680;23.260;2023-03-16T12:20:41;94303.88;;;4.23;98.52
12785;BME280;6456;42.680;23.260;2023-03-16T12:23:27;94334.84;;;4.32;99.09
12785;BME280;6456;42.680;23.260;2023-03-16T12:25:56;94263.25;;;3.78;100.00
12785;BME280;6456;42.680;23.260;2023-03-16T12:28:27;94383.25;;;4.27;97.98
12785;BME280;6456;42.680;23.260;2023-03-16T12:30:59;94390.25;;;4.26;98.73
12785;BME280;6456;42.680;23.260;2023-03-16T12:33:43;94404.44;;;4.24;99.93
12785;BME280;6456;42.680;23.260;2023-03-16T12:39:31;94379.28;;;3.87;100.00
12785;BME280;6456;42.680;23.260;2023-03-16T12:42:14;94357.00;;;3.70;100.00
12785;BME280;6456;42.680;23.260;2023-03-16T12:44:55;94411.88;;;3.98;100.00
12785;BME280;6456;42.680;23.260;2023-03-16T12:47:26;94420.94;;;4.02;100.00
12785;BME280;6456;42.680;23.260;2023-03-16T12:50:03;94416.09;;;3.99;100.00
12785;BME280;6456;42.680;23.260;2023-03-16T12:52:39;94321.22;;;3.35;100.00
12785;BME280;6456;42.680;23.260;2023-03-16T12:55:13;94414.91;;;3.86;100.00
12785;BME280;6456;42.680;23.260;2023-03-16T12:57:42;94405.28;;;3.72;100.00
12785;BME280;6456;42.680;23.260;2023-03-16T13:00:11;94415.94;;;3.63;100.00
12785;BME280;6456;42.680;23.260;2023-03-16T13:02:42;94414.66;;;3.59;100.00
12785;BME280;6456;42.680;23.260;2023-03-16T13:05:12;94374.63;;;3.45;100.00
12785;BME280;6456;42.680;23.260;2023-03-16T13:07:46;94353.50;;;3.26;100.00
12785;BME280;6456;42.680;23.260;2023-03-16T13:10:16;94369.34;;;3.53;100.00
12785;BME280;6456;42.680;23.260;2023-03-16T13:12:45;94413.72;;;3.74;100.00
12785;BME280;6456;42.680;23.260;2023-03-16T13:15:27;94429.56;;;3.87;100.00
12785;BME280;6456;42.680;23.260;2023-03-16T13:18:18;94407.06;;;3.72;100.00
12785;BME280;6456;42.680;23.260;2023-03-16T13:20:53;94390.09;;;3.61;100.00
12785;BME280;6456;42.680;23.260;2023-03-16T13:23:22;94339.13;;;3.15;100.00
12785;BME280;6456;42.680;23.260;2023-03-16T13:26:04;94364.50;;;3.50;100.00
12785;BME280;6456;42.680;23.260;2023-03-16T13:28:36;94323.75;;;3.28;100.00
12785;BME280;6456;42.680;23.260;2023-03-16T13:31:04;94423.28;;;3.97;100.00